Gallup Mills, Vermont
Current Conditions -  °F | °C
As of 8:35 PM on Wednesday 26 Nov 2014 (Local Time) from KCDA Reporting Station
Moderate Snow Moderate Snow  
Wind Chill: -6°   Ceiling: 500
Heat Index: -2°   Visibility: 1mi
Dew Point: -4°   Wind: 9mph
Humidity: 88%   Direction: 290°WNW
Pressure: 29.93"   Gusts: NA
Location:  44.5627°N, 71.7775°W
Report Text: KCDA 270135Z AUTO 29008KT 1SM SN OVC005 M02/M03 A2993 RMK AO2 T10171035
Loading
Personal Weather Stations






























Interactive Weather Map New forecast layout! Learn more

10-Day Weather Forecast

Advertisements
Track Severe Weather on mobile